Time;durP1;ratioP1;P1;durP2;ratioP2;P2;SDS_P1;SDS_P2;PMS_P1;PMS_P2;Temp;Humidity;BMP_temperature;BMP_pressure;BME280_temperature;BME280_humidity;BME280_pressure;Samples;Min_cycle;Max_cycle;Signal;HPM_P1;HPM_P2
2022/08/16 00:00:24;;;;;;;7.70;4.70;;;;;;;;;;4975548;28;20178;-44
2022/08/16 00:02:51;;;;;;;9.33;4.90;;;;;;;;;;4958622;28;20591;-44
2022/08/16 00:05:17;;;;;;;8.77;4.33;;;;;;;;;;4955314;28;20566;-44
2022/08/16 00:07:43;;;;;;;7.47;4.30;;;;;;;;;;4960046;28;20556;-44
2022/08/16 00:10:11;;;;;;;8.27;4.87;;;;;;;;;;4957453;28;20186;-44
2022/08/16 00:12:40;;;;;;;6.57;4.90;;;;;;;;;;4953294;28;20789;-44
2022/08/16 00:15:08;;;;;;;6.37;4.73;;;;;;;;;;4957383;28;20181;-44
2022/08/16 00:17:34;;;;;;;8.50;4.77;;;;;;;;;;4958909;28;20280;-44
2022/08/16 00:20:00;;;;;;;5.43;4.73;;;;;;;;;;4958244;28;20237;-44
2022/08/16 00:22:26;;;;;;;11.53;5.40;;;;;;;;;;4956692;28;20177;-44
2022/08/16 00:24:53;;;;;;;6.60;4.80;;;;;;;;;;4959004;28;20572;-44
2022/08/16 00:27:19;;;;;;;7.70;4.70;;;;;;;;;;4955749;28;20178;-44
2022/08/16 00:29:45;;;;;;;9.80;4.80;;;;;;;;;;4955788;28;20479;-44
2022/08/16 00:32:11;;;;;;;10.13;4.97;;;;;;;;;;4958473;28;20555;-44
2022/08/16 00:34:37;;;;;;;6.73;4.57;;;;;;;;;;4957699;28;20174;-44
2022/08/16 00:37:04;;;;;;;7.37;4.57;;;;;;;;;;4986738;28;20186;-44
2022/08/16 00:39:30;;;;;;;9.07;4.83;;;;;;;;;;4961000;28;20206;-44
2022/08/16 00:41:56;;;;;;;9.43;4.73;;;;;;;;;;4958231;28;20185;-44
2022/08/16 00:44:22;;;;;;;7.40;4.30;;;;;;;;;;4955618;28;20649;-44
2022/08/16 00:47:01;;;;;;;7.13;4.93;;;;;;;;;;4956571;28;20595;-44
2022/08/16 00:49:27;;;;;;;7.43;5.30;;;;;;;;;;4959136;28;20186;-44
2022/08/16 00:51:53;;;;;;;9.80;5.90;;;;;;;;;;4955720;28;20182;-44
2022/08/16 00:54:22;;;;;;;6.30;5.60;;;;;;;;;;4957014;28;20842;-44
2022/08/16 00:56:50;;;;;;;10.07;5.77;;;;;;;;;;4958872;28;20747;-44
2022/08/16 00:59:17;;;;;;;8.50;5.73;;;;;;;;;;4959308;28;20194;-44
2022/08/16 01:01:43;;;;;;;7.77;5.37;;;;;;;;;;4954843;28;20677;-44
2022/08/16 01:04:10;;;;;;;9.27;5.30;;;;;;;;;;4959883;28;20611;-44
2022/08/16 01:06:36;;;;;;;5.73;4.63;;;;;;;;;;4955799;28;20190;-45
2022/08/16 01:09:05;;;;;;;7.67;4.50;;;;;;;;;;4956483;28;20193;-44
2022/08/16 01:11:32;;;;;;;8.60;5.43;;;;;;;;;;4959494;28;20178;-44
2022/08/16 01:14:02;;;;;;;7.83;4.93;;;;;;;;;;4958821;28;20256;-44
2022/08/16 01:16:29;;;;;;;6.03;4.83;;;;;;;;;;4955831;28;20801;-44
2022/08/16 01:19:07;;;;;;;4.70;4.27;;;;;;;;;;4956403;28;20241;-44
2022/08/16 01:21:36;;;;;;;7.00;4.47;;;;;;;;;;4960148;28;20191;-44
2022/08/16 01:24:24;;;;;;;6.53;4.00;;;;;;;;;;4956389;28;20167;-44
2022/08/16 01:26:51;;;;;;;5.73;4.73;;;;;;;;;;4957812;28;20436;-44
2022/08/16 01:29:21;;;;;;;5.67;4.33;;;;;;;;;;4955486;28;20178;-44
2022/08/16 01:31:47;;;;;;;5.63;4.33;;;;;;;;;;4955134;28;20451;-44
2022/08/16 01:34:15;;;;;;;7.10;4.17;;;;;;;;;;4957944;28;20525;-44
2022/08/16 01:36:41;;;;;;;5.10;4.30;;;;;;;;;;4957897;28;20815;-44
2022/08/16 01:39:09;;;;;;;5.73;4.10;;;;;;;;;;4954104;28;20670;-44
2022/08/16 01:41:36;;;;;;;6.00;4.10;;;;;;;;;;4956901;28;20170;-44
2022/08/16 01:44:02;;;;;;;6.00;4.33;;;;;;;;;;4955430;28;20181;-44
2022/08/16 01:46:34;;;;;;;5.60;4.20;;;;;;;;;;4956312;28;21350;-44
2022/08/16 01:49:02;;;;;;;7.03;4.30;;;;;;;;;;4959136;28;20735;-44
2022/08/16 01:51:29;;;;;;;5.27;3.97;;;;;;;;;;4957162;28;20237;-44
2022/08/16 01:53:55;;;;;;;6.27;4.00;;;;;;;;;;4952938;28;20496;-44
2022/08/16 01:56:22;;;;;;;5.60;4.00;;;;;;;;;;4958495;28;20175;-44
2022/08/16 01:58:48;;;;;;;4.80;4.23;;;;;;;;;;4954781;28;20197;-44
2022/08/16 02:01:14;;;;;;;6.03;3.80;;;;;;;;;;4952820;28;20825;-44
2022/08/16 02:03:41;;;;;;;4.30;3.60;;;;;;;;;;4957824;28;20179;-44
2022/08/16 02:06:07;;;;;;;7.87;4.43;;;;;;;;;;4954726;28;20699;-44
2022/08/16 02:08:33;;;;;;;4.33;3.93;;;;;;;;;;4952360;28;20649;-44
2022/08/16 02:10:59;;;;;;;5.43;4.20;;;;;;;;;;4960103;28;20527;-44
2022/08/16 02:13:26;;;;;;;7.17;4.33;;;;;;;;;;4956432;28;20442;-44
2022/08/16 02:15:52;;;;;;;4.90;3.97;;;;;;;;;;4953165;28;20209;-44
2022/08/16 02:18:18;;;;;;;6.40;4.20;;;;;;;;;;4958237;28;20630;-43
2022/08/16 02:20:47;;;;;;;6.27;4.10;;;;;;;;;;4956147;28;21678;-44
2022/08/16 02:23:13;;;;;;;5.27;3.97;;;;;;;;;;4955490;28;20454;-44
2022/08/16 02:25:39;;;;;;;6.13;4.37;;;;;;;;;;4958307;28;21002;-44
2022/08/16 02:28:05;;;;;;;5.03;3.90;;;;;;;;;;4956228;28;20573;-44
2022/08/16 02:30:32;;;;;;;6.63;4.07;;;;;;;;;;4955436;28;20210;-44
2022/08/16 02:32:58;;;;;;;5.30;4.07;;;;;;;;;;4957966;28;20209;-44
2022/08/16 02:35:25;;;;;;;5.60;4.03;;;;;;;;;;4957740;28;20727;-44
2022/08/16 02:37:52;;;;;;;4.77;3.83;;;;;;;;;;4967404;28;20189;-44
2022/08/16 02:40:19;;;;;;;4.40;3.80;;;;;;;;;;4955635;28;20343;-43
2022/08/16 02:42:46;;;;;;;5.50;3.87;;;;;;;;;;4958157;28;20256;-44
2022/08/16 02:45:12;;;;;;;6.73;4.10;;;;;;;;;;4957286;28;20178;-44
2022/08/16 02:47:38;;;;;;;5.90;4.20;;;;;;;;;;4952628;28;20223;-43
2022/08/16 02:50:05;;;;;;;6.77;3.83;;;;;;;;;;4954843;28;20900;-44
2022/08/16 02:52:31;;;;;;;5.00;3.90;;;;;;;;;;4957947;28;20782;-44
2022/08/16 02:54:57;;;;;;;6.40;4.27;;;;;;;;;;4953400;28;20608;-44
2022/08/16 02:57:24;;;;;;;5.37;4.03;;;;;;;;;;4954935;28;20725;-44
2022/08/16 02:59:50;;;;;;;8.27;4.07;;;;;;;;;;4957597;28;21096;-44
2022/08/16 03:02:16;;;;;;;5.13;4.20;;;;;;;;;;4957359;28;20182;-44
2022/08/16 03:04:42;;;;;;;6.93;4.00;;;;;;;;;;4953866;28;20333;-44
2022/08/16 03:07:10;;;;;;;5.77;4.10;;;;;;;;;;4956691;28;20230;-44
2022/08/16 03:09:36;;;;;;;6.37;4.60;;;;;;;;;;4956536;28;20193;-44
2022/08/16 03:12:04;;;;;;;7.80;4.40;;;;;;;;;;4954907;28;20182;-44
2022/08/16 03:14:30;;;;;;;4.83;4.20;;;;;;;;;;4955500;28;20678;-44
2022/08/16 03:16:56;;;;;;;4.73;4.23;;;;;;;;;;4954859;28;20293;-44
2022/08/16 03:19:22;;;;;;;6.47;5.33;;;;;;;;;;4952567;28;20472;-44
2022/08/16 03:21:49;;;;;;;5.57;4.67;;;;;;;;;;4957823;28;20185;-43
2022/08/16 03:24:15;;;;;;;6.83;5.47;;;;;;;;;;4955250;28;20182;-44
2022/08/16 03:26:41;;;;;;;9.03;5.23;;;;;;;;;;4952238;28;20500;-44
2022/08/16 03:29:07;;;;;;;7.20;5.03;;;;;;;;;;4955193;28;20666;-44
2022/08/16 03:31:33;;;;;;;6.47;5.00;;;;;;;;;;4956862;28;20186;-44
2022/08/16 03:33:59;;;;;;;8.20;5.43;;;;;;;;;;4954073;28;20586;-45
2022/08/16 03:36:25;;;;;;;7.80;5.23;;;;;;;;;;4955949;28;20202;-44
2022/08/16 03:38:51;;;;;;;5.13;4.63;;;;;;;;;;4956048;28;20229;-44
2022/08/16 03:41:17;;;;;;;7.23;5.90;;;;;;;;;;4954476;28;20478;-44
2022/08/16 03:43:44;;;;;;;5.80;5.00;;;;;;;;;;4956610;28;20595;-44
2022/08/16 03:46:10;;;;;;;6.50;5.13;;;;;;;;;;4957384;28;20178;-44
2022/08/16 03:48:37;;;;;;;5.63;4.60;;;;;;;;;;4952873;28;20377;-44
2022/08/16 03:51:06;;;;;;;5.70;5.10;;;;;;;;;;4954125;28;20907;-44
2022/08/16 03:53:33;;;;;;;7.37;6.10;;;;;;;;;;4955140;28;20608;-43
2022/08/16 03:55:59;;;;;;;7.70;5.17;;;;;;;;;;4951442;28;20276;-44
2022/08/16 03:58:26;;;;;;;8.17;5.43;;;;;;;;;;4952595;28;20746;-44
2022/08/16 04:00:54;;;;;;;11.43;6.27;;;;;;;;;;4957129;28;20621;-43
2022/08/16 04:03:20;;;;;;;11.33;6.17;;;;;;;;;;4957047;28;20551;-43
2022/08/16 04:05:47;;;;;;;16.97;7.33;;;;;;;;;;4953450;28;20265;-46
2022/08/16 04:08:13;;;;;;;13.90;6.30;;;;;;;;;;4954272;28;20619;-45
2022/08/16 04:10:40;;;;;;;11.07;6.33;;;;;;;;;;4957099;28;20730;-45
2022/08/16 04:13:06;;;;;;;8.43;5.80;;;;;;;;;;4955656;28;20584;-43
2022/08/16 04:15:32;;;;;;;11.03;6.00;;;;;;;;;;4953809;28;20174;-43
2022/08/16 04:18:00;;;;;;;13.07;6.90;;;;;;;;;;4958865;28;20712;-43
2022/08/16 04:20:26;;;;;;;13.80;6.63;;;;;;;;;;4956257;28;21628;-44
2022/08/16 04:22:52;;;;;;;11.13;6.40;;;;;;;;;;4957263;28;21015;-44
2022/08/16 04:25:19;;;;;;;11.27;6.43;;;;;;;;;;4960057;28;20189;-44
2022/08/16 04:27:45;;;;;;;13.63;7.13;;;;;;;;;;4957796;28;20233;-44
2022/08/16 04:30:13;;;;;;;9.87;6.40;;;;;;;;;;4957574;28;21017;-43
2022/08/16 04:32:40;;;;;;;11.20;5.90;;;;;;;;;;4957649;28;20257;-44
2022/08/16 04:35:07;;;;;;;7.80;5.50;;;;;;;;;;4960214;28;20166;-44
2022/08/16 04:37:33;;;;;;;7.83;5.83;;;;;;;;;;4955364;28;20223;-44
2022/08/16 04:39:59;;;;;;;6.93;5.13;;;;;;;;;;4960415;28;20372;-43
2022/08/16 04:42:26;;;;;;;10.03;5.37;;;;;;;;;;4959473;28;20522;-44
2022/08/16 04:44:54;;;;;;;7.77;5.50;;;;;;;;;;4956961;28;20531;-44
2022/08/16 04:47:25;;;;;;;7.83;5.70;;;;;;;;;;4959384;28;20209;-44
2022/08/16 04:49:51;;;;;;;8.90;5.40;;;;;;;;;;4958533;28;20174;-44
2022/08/16 04:52:17;;;;;;;6.00;5.17;;;;;;;;;;4955568;28;20662;-44
2022/08/16 04:54:43;;;;;;;5.93;5.07;;;;;;;;;;4961096;28;20918;-45
2022/08/16 04:57:10;;;;;;;7.30;4.90;;;;;;;;;;4957430;28;20194;-44
2022/08/16 04:59:36;;;;;;;7.13;4.50;;;;;;;;;;4958116;28;20216;-44
2022/08/16 05:02:02;;;;;;;6.07;5.10;;;;;;;;;;4959302;28;20186;-44
2022/08/16 05:04:28;;;;;;;5.60;4.60;;;;;;;;;;4955523;28;21097;-44
2022/08/16 05:06:54;;;;;;;8.07;5.60;;;;;;;;;;4957286;28;20775;-44
2022/08/16 05:09:20;;;;;;;7.63;5.43;;;;;;;;;;4973125;28;20314;-44
2022/08/16 05:11:46;;;;;;;6.07;5.30;;;;;;;;;;4957308;28;20630;-44
2022/08/16 05:14:12;;;;;;;5.43;4.90;;;;;;;;;;4959069;28;20632;-45
2022/08/16 05:16:39;;;;;;;7.90;5.20;;;;;;;;;;4956711;28;20809;-45
2022/08/16 05:19:05;;;;;;;5.20;4.70;;;;;;;;;;4958963;28;20210;-44
2022/08/16 05:21:32;;;;;;;6.13;4.43;;;;;;;;;;4958708;28;20388;-45
2022/08/16 05:23:59;;;;;;;7.83;5.27;;;;;;;;;;4956078;28;20475;-45
2022/08/16 05:26:26;;;;;;;6.60;5.00;;;;;;;;;;4960203;28;20459;-43
2022/08/16 05:28:53;;;;;;;5.13;4.43;;;;;;;;;;4957538;28;20179;-44
2022/08/16 05:31:19;;;;;;;5.67;4.97;;;;;;;;;;4953439;28;20195;-45
2022/08/16 05:33:45;;;;;;;5.73;4.63;;;;;;;;;;4957356;28;20481;-45
2022/08/16 05:36:11;;;;;;;6.60;5.07;;;;;;;;;;4958211;28;20578;-45
2022/08/16 05:38:37;;;;;;;6.23;4.57;;;;;;;;;;4955615;28;20631;-45
2022/08/16 05:41:03;;;;;;;5.40;4.90;;;;;;;;;;4957897;28;20600;-45
2022/08/16 05:43:29;;;;;;;6.43;4.77;;;;;;;;;;4958783;28;20247;-45
2022/08/16 05:45:57;;;;;;;4.70;4.30;;;;;;;;;;4955042;28;20179;-45
2022/08/16 05:48:23;;;;;;;5.13;3.90;;;;;;;;;;4955924;28;20336;-45
2022/08/16 05:50:49;;;;;;;5.97;3.87;;;;;;;;;;4959871;28;20256;-45
2022/08/16 05:53:16;;;;;;;6.87;3.90;;;;;;;;;;4955943;28;20186;-45
2022/08/16 05:55:42;;;;;;;5.43;4.30;;;;;;;;;;4954404;28;20445;-45
2022/08/16 05:58:08;;;;;;;4.20;3.47;;;;;;;;;;4958719;28;20261;-45
2022/08/16 06:00:34;;;;;;;7.33;4.30;;;;;;;;;;4958847;28;20170;-45
2022/08/16 06:03:00;;;;;;;5.07;3.80;;;;;;;;;;4958484;28;20181;-45
2022/08/16 06:05:27;;;;;;;4.30;3.30;;;;;;;;;;4956422;28;20184;-45
2022/08/16 06:07:53;;;;;;;5.80;3.63;;;;;;;;;;4955988;28;20293;-45
2022/08/16 06:10:19;;;;;;;6.17;3.60;;;;;;;;;;4955108;28;20809;-45
2022/08/16 06:12:45;;;;;;;5.30;3.83;;;;;;;;;;4958009;28;20181;-45
2022/08/16 06:15:14;;;;;;;5.00;3.53;;;;;;;;;;4958019;28;20671;-44
2022/08/16 06:17:40;;;;;;;7.23;4.00;;;;;;;;;;4956108;28;20848;-45
2022/08/16 06:20:07;;;;;;;4.60;3.50;;;;;;;;;;4953358;28;20283;-45
2022/08/16 06:22:33;;;;;;;4.67;3.70;;;;;;;;;;4957572;28;20193;-45
2022/08/16 06:24:59;;;;;;;4.03;3.33;;;;;;;;;;4960792;28;20796;-45
2022/08/16 06:27:25;;;;;;;5.53;3.50;;;;;;;;;;4955018;28;20186;-45
2022/08/16 06:29:51;;;;;;;6.13;3.70;;;;;;;;;;4958409;28;20438;-45
2022/08/16 06:32:17;;;;;;;5.27;3.63;;;;;;;;;;4955028;28;20177;-45
2022/08/16 06:34:43;;;;;;;8.77;3.97;;;;;;;;;;4956528;28;20582;-45
2022/08/16 06:37:09;;;;;;;5.87;3.60;;;;;;;;;;4954624;28;20282;-45
2022/08/16 06:39:36;;;;;;;7.73;3.87;;;;;;;;;;4955759;28;20666;-45
2022/08/16 06:42:02;;;;;;;8.17;4.00;;;;;;;;;;4954380;28;21057;-45
2022/08/16 06:44:28;;;;;;;6.77;3.60;;;;;;;;;;4956349;28;20174;-45
2022/08/16 06:46:54;;;;;;;5.93;3.67;;;;;;;;;;4955269;28;20182;-45
2022/08/16 06:49:20;;;;;;;5.30;3.90;;;;;;;;;;4954408;28;20961;-45
2022/08/16 06:51:46;;;;;;;7.83;4.60;;;;;;;;;;4956912;28;20186;-44
2022/08/16 06:54:12;;;;;;;9.63;4.10;;;;;;;;;;4955982;28;20448;-45
2022/08/16 06:56:38;;;;;;;6.90;4.07;;;;;;;;;;4969001;28;20572;-45
2022/08/16 06:59:04;;;;;;;8.90;4.80;;;;;;;;;;4957346;28;20205;-45
2022/08/16 07:01:30;;;;;;;7.53;4.43;;;;;;;;;;4956180;28;20213;-45
2022/08/16 07:03:57;;;;;;;7.37;4.80;;;;;;;;;;4953412;28;20764;-45
2022/08/16 07:06:23;;;;;;;5.40;3.97;;;;;;;;;;4968718;28;20297;-45
2022/08/16 07:08:49;;;;;;;8.23;4.80;;;;;;;;;;4957323;28;20526;-45
2022/08/16 07:11:16;;;;;;;5.83;4.30;;;;;;;;;;4952728;28;20679;-45
2022/08/16 07:13:42;;;;;;;6.07;4.50;;;;;;;;;;4956478;28;20178;-45
2022/08/16 07:16:13;;;;;;;6.73;4.57;;;;;;;;;;4956875;28;20204;-45
2022/08/16 07:18:40;;;;;;;8.70;5.00;;;;;;;;;;4954682;28;20728;-45
2022/08/16 07:21:07;;;;;;;11.30;5.30;;;;;;;;;;4956594;28;20643;-45
2022/08/16 07:23:33;;;;;;;11.20;4.73;;;;;;;;;;4955119;28;20413;-45
2022/08/16 07:25:59;;;;;;;7.50;4.57;;;;;;;;;;4954157;28;20617;-45
2022/08/16 07:28:25;;;;;;;6.07;3.87;;;;;;;;;;4957895;28;20756;-45
2022/08/16 07:30:51;;;;;;;7.87;4.60;;;;;;;;;;4954515;28;20178;-45
2022/08/16 07:33:17;;;;;;;7.17;4.67;;;;;;;;;;4953631;28;20777;-45
2022/08/16 07:35:44;;;;;;;8.13;4.63;;;;;;;;;;4954734;28;20170;-45
2022/08/16 07:38:10;;;;;;;8.63;4.60;;;;;;;;;;4954739;28;20201;-44
2022/08/16 07:40:37;;;;;;;7.60;4.60;;;;;;;;;;4951961;28;20341;-45
2022/08/16 07:43:03;;;;;;;5.70;4.03;;;;;;;;;;4955535;28;20365;-45
2022/08/16 07:45:29;;;;;;;9.90;4.87;;;;;;;;;;4957335;28;20315;-45
2022/08/16 07:47:56;;;;;;;6.67;4.30;;;;;;;;;;4953693;28;20178;-45
2022/08/16 07:50:22;;;;;;;12.43;5.10;;;;;;;;;;4953311;28;20575;-45
2022/08/16 07:52:48;;;;;;;6.43;4.30;;;;;;;;;;4960435;28;20214;-45
2022/08/16 07:55:15;;;;;;;7.20;4.67;;;;;;;;;;4956424;28;20182;-45
2022/08/16 07:57:41;;;;;;;8.23;4.90;;;;;;;;;;4958254;28;20666;-46
2022/08/16 08:00:08;;;;;;;12.40;4.70;;;;;;;;;;4959712;28;20202;-46
2022/08/16 08:02:35;;;;;;;12.70;5.30;;;;;;;;;;4957764;28;20183;-46
2022/08/16 08:05:01;;;;;;;6.80;4.40;;;;;;;;;;4956532;28;20618;-46
2022/08/16 08:07:28;;;;;;;5.30;4.63;;;;;;;;;;4959540;28;20288;-46
2022/08/16 08:09:54;;;;;;;7.20;4.20;;;;;;;;;;4958827;28;20178;-46
2022/08/16 08:12:20;;;;;;;7.63;4.70;;;;;;;;;;4957799;28;20409;-46
2022/08/16 08:14:48;;;;;;;10.03;4.23;;;;;;;;;;4956873;28;20723;-46
2022/08/16 08:17:15;;;;;;;12.20;4.37;;;;;;;;;;4960562;28;20329;-46
2022/08/16 08:19:41;;;;;;;8.00;4.23;;;;;;;;;;4960813;28;20493;-46
2022/08/16 08:22:08;;;;;;;7.67;4.07;;;;;;;;;;4958337;28;20377;-46
2022/08/16 08:24:37;;;;;;;6.73;4.00;;;;;;;;;;4959260;28;20214;-46
2022/08/16 08:27:04;;;;;;;6.93;4.00;;;;;;;;;;4959549;28;20444;-46
2022/08/16 08:29:30;;;;;;;7.17;3.80;;;;;;;;;;4955938;28;20711;-46
2022/08/16 08:31:57;;;;;;;8.30;4.27;;;;;;;;;;4957928;28;20264;-46
2022/08/16 08:34:23;;;;;;;8.07;4.37;;;;;;;;;;4961145;28;20194;-46
2022/08/16 08:36:50;;;;;;;5.17;3.60;;;;;;;;;;4953880;28;20174;-46
2022/08/16 08:39:16;;;;;;;7.77;3.80;;;;;;;;;;4954098;28;20442;-46
2022/08/16 08:41:43;;;;;;;9.20;3.90;;;;;;;;;;4957540;28;20188;-46
2022/08/16 08:44:09;;;;;;;8.53;4.60;;;;;;;;;;4957781;28;20186;-46
2022/08/16 08:46:36;;;;;;;5.73;3.67;;;;;;;;;;4955488;28;20687;-46
2022/08/16 08:49:02;;;;;;;8.10;3.63;;;;;;;;;;4955502;28;20669;-46
2022/08/16 08:51:28;;;;;;;12.73;3.93;;;;;;;;;;4957804;28;20513;-46
2022/08/16 08:53:54;;;;;;;8.97;3.77;;;;;;;;;;4953704;28;20174;-46
2022/08/16 08:56:20;;;;;;;7.67;4.23;;;;;;;;;;4957296;28;20601;-47
2022/08/16 08:58:47;;;;;;;6.97;3.57;;;;;;;;;;4958817;28;20417;-46
2022/08/16 09:01:13;;;;;;;9.73;4.03;;;;;;;;;;4954318;28;20184;-46
2022/08/16 09:03:40;;;;;;;4.90;3.40;;;;;;;;;;4951143;28;20182;-46
2022/08/16 09:06:07;;;;;;;5.73;3.30;;;;;;;;;;4957109;28;20228;-47
2022/08/16 09:08:33;;;;;;;11.57;3.50;;;;;;;;;;4958312;28;20265;-46
2022/08/16 09:10:59;;;;;;;6.63;3.10;;;;;;;;;;4955845;28;20206;-46
2022/08/16 09:13:26;;;;;;;8.50;3.70;;;;;;;;;;4955882;28;20624;-47
2022/08/16 09:15:54;;;;;;;9.97;3.83;;;;;;;;;;4957225;28;20693;-47
2022/08/16 09:18:21;;;;;;;8.23;3.60;;;;;;;;;;4953166;28;20761;-46
2022/08/16 09:20:48;;;;;;;6.13;3.30;;;;;;;;;;4955907;28;20186;-44
2022/08/16 09:23:14;;;;;;;6.03;3.30;;;;;;;;;;4957857;28;20595;-44
2022/08/16 09:25:42;;;;;;;10.80;3.77;;;;;;;;;;4969801;28;20236;-44
2022/08/16 09:28:08;;;;;;;7.40;3.87;;;;;;;;;;4954568;28;20179;-44
2022/08/16 09:30:34;;;;;;;7.70;3.40;;;;;;;;;;4957932;28;20189;-47
2022/08/16 09:33:01;;;;;;;7.93;3.40;;;;;;;;;;4953508;28;20193;-47
2022/08/16 09:35:27;;;;;;;9.47;4.00;;;;;;;;;;4955383;28;20798;-47
2022/08/16 09:37:55;;;;;;;8.40;3.70;;;;;;;;;;4958932;28;20190;-46
2022/08/16 09:40:22;;;;;;;8.80;3.50;;;;;;;;;;4961586;28;20364;-47
2022/08/16 09:42:49;;;;;;;5.93;3.23;;;;;;;;;;4962426;28;20189;-46
2022/08/16 09:45:15;;;;;;;6.00;3.60;;;;;;;;;;4963406;28;20253;-47
2022/08/16 09:47:42;;;;;;;6.47;3.40;;;;;;;;;;4959446;28;20190;-46
2022/08/16 09:50:09;;;;;;;8.03;3.40;;;;;;;;;;4961536;28;20178;-46
2022/08/16 09:52:36;;;;;;;6.40;3.10;;;;;;;;;;4959805;28;20285;-46
2022/08/16 09:55:06;;;;;;;7.50;3.30;;;;;;;;;;4957438;28;20229;-46
2022/08/16 09:57:32;;;;;;;8.83;3.70;;;;;;;;;;4961636;28;20186;-46
2022/08/16 10:00:00;;;;;;;8.33;3.40;;;;;;;;;;4964738;28;21025;-46
2022/08/16 10:02:26;;;;;;;7.83;3.77;;;;;;;;;;4961131;28;20918;-46
2022/08/16 10:04:52;;;;;;;8.87;3.90;;;;;;;;;;4958222;28;21231;-46
2022/08/16 10:07:18;;;;;;;7.17;3.40;;;;;;;;;;4959273;28;20175;-46
2022/08/16 10:09:45;;;;;;;10.17;3.70;;;;;;;;;;4959727;28;20183;-46
2022/08/16 10:14:55;;;;;;;8.33;3.40;;;;;;;;;;4957257;28;20306;-46
2022/08/16 10:17:23;;;;;;;8.77;3.50;;;;;;;;;;4959401;28;20221;-46
2022/08/16 10:19:51;;;;;;;11.07;3.50;;;;;;;;;;4960444;28;20195;-46
2022/08/16 10:22:18;;;;;;;8.57;3.37;;;;;;;;;;4961606;28;20166;-46
2022/08/16 10:24:44;;;;;;;8.50;3.70;;;;;;;;;;4961660;28;20455;-46
2022/08/16 10:27:10;;;;;;;7.90;3.67;;;;;;;;;;4958982;28;20229;-46
2022/08/16 10:29:36;;;;;;;12.13;4.10;;;;;;;;;;4958536;28;20900;-46
2022/08/16 10:32:03;;;;;;;7.30;3.90;;;;;;;;;;4961175;28;20174;-46
2022/08/16 10:34:29;;;;;;;7.20;3.47;;;;;;;;;;4957046;28;20181;-46
2022/08/16 10:36:55;;;;;;;9.40;3.43;;;;;;;;;;4959866;28;20209;-46
2022/08/16 10:39:21;;;;;;;8.20;3.70;;;;;;;;;;4957069;28;20274;-46
2022/08/16 10:41:48;;;;;;;7.00;3.20;;;;;;;;;;4956301;28;21146;-46
2022/08/16 10:44:14;;;;;;;9.23;3.13;;;;;;;;;;4958200;28;20178;-46
2022/08/16 10:46:40;;;;;;;9.60;3.43;;;;;;;;;;4952727;28;20602;-46
2022/08/16 10:49:07;;;;;;;7.33;4.00;;;;;;;;;;4953425;28;20185;-46
2022/08/16 10:51:34;;;;;;;10.50;3.77;;;;;;;;;;4948742;28;20182;-46
2022/08/16 10:54:01;;;;;;;10.40;4.13;;;;;;;;;;4957650;28;21114;-46
2022/08/16 10:56:28;;;;;;;9.30;3.73;;;;;;;;;;4950251;28;20768;-46
2022/08/16 10:58:56;;;;;;;9.10;4.00;;;;;;;;;;4953463;28;20203;-46
2022/08/16 11:01:24;;;;;;;7.60;3.70;;;;;;;;;;4950126;28;20479;-46
2022/08/16 11:03:50;;;;;;;7.17;3.60;;;;;;;;;;4958761;28;20174;-46
2022/08/16 11:06:16;;;;;;;8.97;3.60;;;;;;;;;;4955961;28;20178;-46
2022/08/16 11:08:43;;;;;;;9.23;3.93;;;;;;;;;;4952489;28;20166;-46
2022/08/16 11:11:10;;;;;;;7.37;3.93;;;;;;;;;;4957155;28;21136;-46
2022/08/16 11:13:37;;;;;;;8.63;4.13;;;;;;;;;;4955779;28;20292;-46
2022/08/16 11:16:03;;;;;;;9.13;3.63;;;;;;;;;;4953266;28;20170;-46
2022/08/16 11:18:29;;;;;;;5.43;3.83;;;;;;;;;;4956828;28;20306;-46
2022/08/16 11:20:58;;;;;;;10.37;3.70;;;;;;;;;;4957856;28;20673;-46
2022/08/16 11:23:24;;;;;;;9.73;3.93;;;;;;;;;;4956064;28;20835;-46
2022/08/16 11:25:51;;;;;;;7.83;3.30;;;;;;;;;;4953701;28;20873;-46
2022/08/16 11:28:17;;;;;;;8.97;3.77;;;;;;;;;;4961887;28;20170;-46
2022/08/16 11:30:43;;;;;;;8.80;3.67;;;;;;;;;;4957981;28;20413;-46
2022/08/16 11:33:09;;;;;;;8.87;3.47;;;;;;;;;;4957211;28;20356;-46
2022/08/16 11:35:36;;;;;;;7.50;3.40;;;;;;;;;;4959556;28;20182;-46
2022/08/16 11:38:04;;;;;;;7.77;3.60;;;;;;;;;;4961791;28;20632;-46
2022/08/16 11:40:49;;;;;;;6.23;3.00;;;;;;;;;;4955427;28;20413;-46
2022/08/16 11:43:17;;;;;;;5.43;3.67;;;;;;;;;;4960388;28;20544;-46
2022/08/16 11:45:43;;;;;;;7.93;3.63;;;;;;;;;;4959505;28;20573;-46
2022/08/16 11:48:09;;;;;;;4.63;3.20;;;;;;;;;;4958386;28;20865;-46
2022/08/16 11:50:35;;;;;;;6.73;3.73;;;;;;;;;;4958422;28;20265;-46
2022/08/16 11:53:02;;;;;;;4.57;3.43;;;;;;;;;;4961960;28;20193;-46
2022/08/16 11:55:28;;;;;;;7.73;3.33;;;;;;;;;;4958566;28;20553;-46
2022/08/16 11:57:54;;;;;;;6.40;3.10;;;;;;;;;;4956745;28;20178;-46
2022/08/16 12:00:21;;;;;;;7.43;3.30;;;;;;;;;;4959605;28;20209;-46
2022/08/16 12:02:47;;;;;;;6.63;3.43;;;;;;;;;;4955014;28;20200;-46
2022/08/16 12:05:14;;;;;;;6.93;3.47;;;;;;;;;;4959793;28;20269;-46
2022/08/16 12:07:41;;;;;;;7.90;3.57;;;;;;;;;;4959939;28;20186;-46
2022/08/16 12:10:13;;;;;;;7.80;3.57;;;;;;;;;;4956031;28;20630;-46
2022/08/16 12:12:40;;;;;;;6.50;3.23;;;;;;;;;;4958234;28;20183;-46
2022/08/16 12:15:06;;;;;;;10.13;3.67;;;;;;;;;;4960598;28;20563;-46
2022/08/16 12:17:33;;;;;;;6.27;3.53;;;;;;;;;;4960077;28;20607;-46
2022/08/16 12:20:10;;;;;;;7.67;3.70;;;;;;;;;;4957139;28;20618;-46
2022/08/16 12:22:37;;;;;;;7.10;3.30;;;;;;;;;;4960203;28;20583;-46
2022/08/16 12:25:04;;;;;;;4.17;3.10;;;;;;;;;;4961298;28;20186;-46
2022/08/16 12:27:31;;;;;;;7.03;3.60;;;;;;;;;;4958299;28;20646;-46
2022/08/16 12:29:57;;;;;;;6.40;3.57;;;;;;;;;;4954333;28;20979;-46
2022/08/16 12:32:23;;;;;;;6.80;3.50;;;;;;;;;;4958388;28;20817;-46
2022/08/16 12:34:50;;;;;;;6.87;3.30;;;;;;;;;;4957633;28;20190;-46
2022/08/16 12:37:16;;;;;;;7.17;3.43;;;;;;;;;;4954303;28;20298;-46
2022/08/16 12:39:42;;;;;;;6.63;3.47;;;;;;;;;;4958811;28;21005;-46
2022/08/16 12:42:08;;;;;;;8.67;3.50;;;;;;;;;;4960758;28;20254;-46
2022/08/16 12:44:40;;;;;;;7.20;3.30;;;;;;;;;;4956070;28;20417;-45
2022/08/16 12:49:52;;;;;;;8.37;3.67;;;;;;;;;;4959583;28;20342;-46
2022/08/16 12:52:19;;;;;;;4.87;3.60;;;;;;;;;;4957761;28;20643;-46
2022/08/16 12:54:45;;;;;;;5.30;3.43;;;;;;;;;;4954021;28;20775;-46
2022/08/16 12:57:11;;;;;;;7.07;3.30;;;;;;;;;;4956345;28;20408;-45
2022/08/16 12:59:37;;;;;;;5.17;3.37;;;;;;;;;;4957395;28;20569;-46
2022/08/16 13:02:05;;;;;;;6.93;3.20;;;;;;;;;;4955826;28;20515;-46
2022/08/16 13:04:32;;;;;;;4.73;3.17;;;;;;;;;;4960368;28;20721;-46
2022/08/16 13:06:58;;;;;;;6.93;3.30;;;;;;;;;;4958372;28;20544;-46
2022/08/16 13:09:25;;;;;;;7.70;3.60;;;;;;;;;;4956739;28;20656;-46
2022/08/16 13:11:59;;;;;;;7.13;3.23;;;;;;;;;;4957918;28;20186;-46
2022/08/16 13:14:32;;;;;;;7.33;3.60;;;;;;;;;;4957778;28;20173;-46
2022/08/16 13:16:58;;;;;;;5.67;3.30;;;;;;;;;;4954479;28;20253;-46
2022/08/16 13:19:24;;;;;;;7.60;3.20;;;;;;;;;;4957208;28;20667;-46
2022/08/16 13:21:50;;;;;;;6.83;3.37;;;;;;;;;;4958164;28;20188;-46
2022/08/16 13:24:16;;;;;;;5.10;3.33;;;;;;;;;;4957776;28;20168;-46
2022/08/16 13:26:42;;;;;;;7.97;3.27;;;;;;;;;;4958264;28;20177;-46
2022/08/16 13:29:09;;;;;;;4.17;3.20;;;;;;;;;;4957331;28;20282;-47
2022/08/16 13:31:35;;;;;;;3.90;3.10;;;;;;;;;;4955405;28;20594;-46
2022/08/16 13:34:01;;;;;;;7.30;3.07;;;;;;;;;;4960914;28;20286;-46
2022/08/16 13:36:27;;;;;;;6.20;3.67;;;;;;;;;;4957450;28;21093;-46
2022/08/16 13:38:53;;;;;;;7.00;3.30;;;;;;;;;;4955710;28;20511;-46
2022/08/16 13:41:19;;;;;;;6.43;3.10;;;;;;;;;;4954892;28;20188;-46
2022/08/16 13:43:45;;;;;;;5.10;3.10;;;;;;;;;;4958244;28;20209;-46
2022/08/16 13:46:12;;;;;;;5.00;3.20;;;;;;;;;;4960655;28;20707;-46
2022/08/16 13:48:38;;;;;;;5.20;3.00;;;;;;;;;;4955993;28;20584;-46
2022/08/16 13:51:04;;;;;;;5.73;2.90;;;;;;;;;;4954589;28;20187;-46
2022/08/16 13:53:30;;;;;;;6.20;3.43;;;;;;;;;;4959759;28;20190;-46
2022/08/16 13:55:57;;;;;;;6.30;3.27;;;;;;;;;;4955739;28;20868;-46
2022/08/16 13:58:23;;;;;;;7.63;3.00;;;;;;;;;;4954441;28;20179;-46
2022/08/16 14:00:49;;;;;;;5.93;3.00;;;;;;;;;;4957548;28;20917;-46
2022/08/16 14:03:16;;;;;;;5.27;3.03;;;;;;;;;;4958340;28;20257;-46
2022/08/16 14:05:42;;;;;;;8.43;3.07;;;;;;;;;;4954522;28;20182;-46
2022/08/16 14:08:08;;;;;;;8.53;3.53;;;;;;;;;;4955190;28;21220;-46
2022/08/16 14:10:34;;;;;;;4.97;3.30;;;;;;;;;;4958937;28;20198;-46
2022/08/16 14:13:01;;;;;;;7.77;3.47;;;;;;;;;;4957314;28;20182;-46
2022/08/16 14:15:27;;;;;;;5.70;3.40;;;;;;;;;;4953115;28;20561;-46
2022/08/16 14:17:53;;;;;;;8.07;3.33;;;;;;;;;;4957108;28;20297;-46
2022/08/16 14:20:20;;;;;;;7.47;3.20;;;;;;;;;;4956329;28;20505;-46
2022/08/16 14:22:46;;;;;;;6.07;3.30;;;;;;;;;;4955463;28;20186;-46
2022/08/16 14:25:14;;;;;;;9.03;3.00;;;;;;;;;;4959295;28;20190;-46
2022/08/16 14:27:40;;;;;;;7.23;3.53;;;;;;;;;;4957213;28;20182;-46
2022/08/16 14:30:08;;;;;;;7.67;3.67;;;;;;;;;;4954501;28;20189;-43
2022/08/16 14:32:35;;;;;;;4.37;2.90;;;;;;;;;;4955072;28;20872;-44
2022/08/16 14:35:06;;;;;;;9.63;3.27;;;;;;;;;;4958442;28;20660;-44
2022/08/16 14:37:33;;;;;;;4.80;3.00;;;;;;;;;;4956864;28;20190;-44
2022/08/16 14:40:00;;;;;;;5.47;3.10;;;;;;;;;;4953130;28;20214;-44
2022/08/16 14:42:26;;;;;;;6.17;3.07;;;;;;;;;;4955289;28;20522;-44